Aérodrome :
LOGIN :

S'inscrire | Disclaimer

   EN    FR    IT 

 










Légende :    VFR   VFR Marginal   IFR   IFR Intensif   IFR Très Intensif
Visi : 
Plafond : 
>= 8 km
>= 3000ft
5 à 8 km
1000 à 3000 ft
1500m à 5 km
500 à 1000 ft
800 à 1500m
200 à 500 ft
< 800m
< 200 ft
Symboles :   Orages  Brouillard  Fortes neiges  Fortes précipitations  Vent > 20 kt
SIGMETs :   Divers  Orages  Givrage  Turbulence  Onde Orograph.  Cendres Volcan.






- Altitude de l'aérodrome : 197 ft
- Code IATA : XOG


LFMO - Orange

DERNIER METAR :
  • 180400Z AUTO 34013KT CAVOK 07/03 Q1027 NOSIG

METARs EXPIRÉS :
  • 180330Z AUTO 35014KT CAVOK 07/03 Q1027 NOSIG
  • 180300Z AUTO 35013KT CAVOK 07/03 Q1027 NOSIG
  • 180230Z AUTO 35012KT CAVOK 07/04 Q1027 NOSIG
  • 180200Z AUTO 34009KT CAVOK 06/04 Q1028 NOSIG
  • 180130Z AUTO 34011KT CAVOK 07/04 Q1028 NOSIG

TAF TAF LFMO
Valide du 18 à 03h jusqu'au 19 à 03h UTC


180200Z 1803/1903 35010KT CAVOK
TEMPO 1806/1903 35015G30KT
PROB40
TEMPO 1812/1903 35020G40KT



MET'MAP, la Météo Aéronautique d'un coup d'oeil ! - Copyright ORBIFLY Décembre 2007 - Disclaimer

ORBIFLY MET'MAP TEAM :

Programmation & Développement : Alexandra Zaïnal
Sur une idée originale de : Baudouin d'Aumeries
Assistance à la programmation : Marc-Olivier Méhu
Soutien technique & logistique : Manuel Goepfert

Contact : metmap@orbifly.com




SOURCES & CREDITS :

   NOAA